Time;durP1;ratioP1;P1;durP2;ratioP2;P2;SDS_P1;SDS_P2;PMS_P1;PMS_P2;Temp;Humidity;BMP_temperature;BMP_pressure;BME280_temperature;BME280_humidity;BME280_pressure;Samples;Min_cycle;Max_cycle;Signal;HPM_P1;HPM_P2
2020/12/09 00:02:00;;;;;;;23.48;17.92;;;1.80;1.00;;;;;;4992864;28;20481;-64
2020/12/09 00:04:26;;;;;;;22.97;18.73;;;1.80;1.00;;;;;;4992466;28;20539;-63
2020/12/09 00:06:53;;;;;;;25.35;19.13;;;1.80;1.00;;;;;;4992916;28;20837;-64
2020/12/09 00:09:20;;;;;;;25.83;20.08;;;1.80;1.00;;;;;;4992973;28;20441;-63
2020/12/09 00:11:51;;;;;;;22.30;18.30;;;1.80;1.00;;;;;;4992588;28;20418;-63
2020/12/09 00:14:18;;;;;;;26.67;19.55;;;1.90;1.00;;;;;;4992316;28;20883;-63
2020/12/09 00:16:44;;;;;;;25.40;19.83;;;1.90;1.00;;;;;;4992397;28;20481;-63
2020/12/09 00:19:11;;;;;;;25.73;19.70;;;2.00;1.00;;;;;;4992911;28;20851;-63
2020/12/09 00:21:38;;;;;;;25.38;19.05;;;2.00;1.00;;;;;;4992351;28;20419;-63
2020/12/09 00:24:05;;;;;;;23.50;19.60;;;2.00;1.00;;;;;;4991958;28;20430;-63
2020/12/09 00:26:32;;;;;;;23.02;19.02;;;2.00;1.00;;;;;;4992159;28;20418;-63
2020/12/09 00:29:00;;;;;;;23.30;19.48;;;2.00;1.00;;;;;;4991355;28;20419;-63
2020/12/09 00:31:32;;;;;;;28.20;20.13;;;2.10;1.00;;;;;;4992337;28;20414;-64
2020/12/09 00:33:59;;;;;;;27.77;20.88;;;2.20;1.00;;;;;;4991958;28;20430;-63
2020/12/09 00:36:25;;;;;;;25.27;20.27;;;2.30;1.00;;;;;;4992030;28;20414;-64
2020/12/09 00:38:53;;;;;;;25.45;20.23;;;2.30;1.00;;;;;;4992188;28;20461;-64
2020/12/09 00:41:22;;;;;;;26.70;19.33;;;2.30;1.00;;;;;;4992063;28;20488;-63
2020/12/09 00:43:48;;;;;;;29.40;20.65;;;2.40;1.00;;;;;;4991761;28;20985;-63
2020/12/09 00:46:15;;;;;;;26.88;19.75;;;2.40;1.00;;;;;;4991810;28;20953;-64
2020/12/09 00:48:42;;;;;;;25.27;19.15;;;2.50;1.00;;;;;;4992017;28;20410;-63
2020/12/09 00:51:12;;;;;;;24.80;19.67;;;2.60;1.00;;;;;;4992039;28;20465;-63
2020/12/09 00:53:38;;;;;;;25.23;19.13;;;2.60;1.00;;;;;;4992078;28;20429;-61
2020/12/09 00:56:06;;;;;;;24.73;19.17;;;2.60;1.00;;;;;;4992381;28;20479;-63
2020/12/09 00:58:32;;;;;;;26.20;20.98;;;2.60;1.00;;;;;;4991722;28;20410;-64
2020/12/09 01:00:59;;;;;;;24.67;18.95;;;2.60;1.00;;;;;;4991800;28;20469;-64
2020/12/09 01:03:26;;;;;;;23.87;18.30;;;2.70;1.00;;;;;;4991437;28;20429;-64
2020/12/09 01:05:52;;;;;;;25.85;19.70;;;2.70;1.00;;;;;;4991648;28;20457;-64
2020/12/09 01:08:18;;;;;;;26.20;20.30;;;2.80;1.00;;;;;;4992012;28;20426;-64
2020/12/09 01:10:44;;;;;;;28.98;20.58;;;2.70;1.00;;;;;;4991781;28;20418;-64
2020/12/09 01:13:10;;;;;;;24.55;19.70;;;2.80;1.00;;;;;;4991722;28;20406;-64
2020/12/09 01:15:37;;;;;;;26.90;20.25;;;2.80;1.00;;;;;;4991318;28;20423;-64
2020/12/09 01:18:03;;;;;;;26.40;20.27;;;2.80;1.00;;;;;;4991528;28;20438;-64
2020/12/09 01:20:30;;;;;;;26.23;20.40;;;2.90;1.00;;;;;;4991462;28;20887;-63
2020/12/09 01:22:56;;;;;;;28.55;20.30;;;2.90;1.00;;;;;;4991019;28;20883;-64
2020/12/09 01:25:22;;;;;;;24.15;19.08;;;2.90;1.00;;;;;;4991651;28;20414;-64
2020/12/09 01:27:48;;;;;;;25.58;19.27;;;3.00;1.00;;;;;;4991376;28;20470;-64
2020/12/09 01:30:14;;;;;;;26.23;19.85;;;3.00;1.00;;;;;;4991452;28;20469;-64
2020/12/09 01:32:40;;;;;;;24.30;19.05;;;3.10;1.00;;;;;;4991118;28;20418;-64
2020/12/09 01:35:07;;;;;;;23.92;19.85;;;3.00;1.00;;;;;;4991253;28;20411;-64
2020/12/09 01:37:34;;;;;;;23.90;19.63;;;3.00;1.00;;;;;;4991307;28;20489;-64
2020/12/09 01:40:00;;;;;;;25.58;19.60;;;3.10;1.00;;;;;;4992009;28;20410;-64
2020/12/09 01:42:26;;;;;;;27.77;21.73;;;3.10;1.00;;;;;;4995021;28;20449;-64
2020/12/09 01:44:52;;;;;;;23.17;18.90;;;3.20;1.00;;;;;;4994884;28;20442;-64
2020/12/09 01:47:19;;;;;;;25.25;19.75;;;3.20;1.00;;;;;;4995016;28;20480;-64
2020/12/09 01:49:45;;;;;;;26.02;20.85;;;3.20;1.00;;;;;;4994866;28;20953;-64
2020/12/09 01:52:12;;;;;;;27.10;20.42;;;3.20;1.00;;;;;;4994996;28;20829;-64
2020/12/09 01:54:39;;;;;;;25.57;20.20;;;3.20;1.00;;;;;;4994964;28;20494;-64
2020/12/09 01:57:07;;;;;;;24.30;19.15;;;3.20;1.00;;;;;;4994872;28;20472;-64
2020/12/09 01:59:35;;;;;;;26.23;20.70;;;3.20;1.00;;;;;;4994716;28;20988;-64
2020/12/09 02:02:01;;;;;;;25.95;19.80;;;3.30;1.00;;;;;;4994634;28;20472;-64
2020/12/09 02:04:28;;;;;;;25.63;19.45;;;3.30;1.00;;;;;;4994978;28;20435;-64
2020/12/09 02:06:54;;;;;;;23.50;19.52;;;3.30;1.00;;;;;;4995006;28;20414;-64
2020/12/09 02:09:21;;;;;;;26.60;20.95;;;3.30;1.00;;;;;;4994582;28;20480;-64
2020/12/09 02:11:50;;;;;;;24.25;20.15;;;3.30;1.00;;;;;;4994691;28;20415;-64
2020/12/09 02:14:16;;;;;;;26.67;20.27;;;3.30;1.00;;;;;;4994321;28;20419;-64
2020/12/09 02:16:43;;;;;;;26.33;20.50;;;3.30;1.00;;;;;;4994368;28;20418;-64
2020/12/09 02:19:09;;;;;;;27.02;20.20;;;3.30;1.00;;;;;;4994749;28;20850;-64
2020/12/09 02:21:36;;;;;;;31.25;23.10;;;3.30;1.00;;;;;;4994205;28;20949;-64
2020/12/09 02:24:03;;;;;;;26.92;20.67;;;3.30;1.00;;;;;;4994418;28;20481;-64
2020/12/09 02:26:30;;;;;;;30.20;21.92;;;3.30;1.00;;;;;;4994195;28;20422;-64
2020/12/09 02:28:56;;;;;;;30.77;22.50;;;3.20;1.00;;;;;;4994228;28;20418;-64
2020/12/09 02:31:23;;;;;;;30.40;22.83;;;3.20;6.80;;;;;;4994032;28;20418;-64
2020/12/09 02:33:49;;;;;;;28.20;20.80;;;3.20;15.80;;;;;;4994274;28;20440;-64
2020/12/09 02:36:15;;;;;;;32.97;22.00;;;3.20;21.50;;;;;;4994254;28;20418;-64
2020/12/09 02:38:42;;;;;;;28.90;21.33;;;3.20;33.30;;;;;;4993686;28;20419;-64
2020/12/09 02:41:08;;;;;;;29.30;20.98;;;3.20;40.10;;;;;;4993924;28;20756;-64
2020/12/09 02:43:35;;;;;;;29.65;22.40;;;3.20;40.70;;;;;;4993647;28;20485;-64
2020/12/09 02:46:02;;;;;;;28.73;21.73;;;3.20;55.60;;;;;;4993877;28;20418;-64
2020/12/09 02:48:28;;;;;;;27.65;21.05;;;3.20;50.80;;;;;;4994048;28;20429;-64
2020/12/09 02:50:55;;;;;;;28.08;20.83;;;3.20;50.50;;;;;;4993828;28;20469;-64
2020/12/09 02:53:21;;;;;;;26.98;21.05;;;3.20;49.00;;;;;;4993071;28;20415;-64
2020/12/09 02:55:48;;;;;;;26.35;19.80;;;3.20;52.00;;;;;;4993706;28;20411;-63
2020/12/09 02:58:15;;;;;;;31.03;21.57;;;3.20;70.20;;;;;;4993503;28;20418;-64
2020/12/09 03:00:41;;;;;;;29.67;21.17;;;3.30;91.80;;;;;;4993654;28;20430;-63
2020/12/09 03:03:07;;;;;;;30.38;22.75;;;3.30;70.90;;;;;;4993584;28;20418;-64
2020/12/09 03:05:33;;;;;;;32.50;23.17;;;3.20;80.90;;;;;;4993866;28;20418;-64
2020/12/09 03:07:59;;;;;;;28.77;22.00;;;3.20;97.30;;;;;;4993520;28;20476;-63
2020/12/09 03:10:25;;;;;;;31.05;22.30;;;3.20;99.90;;;;;;4993560;28;20422;-64
2020/12/09 03:12:52;;;;;;;31.63;21.60;;;3.20;99.90;;;;;;4993246;28;20485;-64
2020/12/09 03:15:18;;;;;;;31.30;23.13;;;3.30;99.90;;;;;;4993382;28;20883;-64
2020/12/09 03:17:44;;;;;;;30.40;22.95;;;3.30;99.90;;;;;;4993396;28;20899;-63
2020/12/09 03:20:11;;;;;;;29.35;21.90;;;3.30;99.90;;;;;;4993254;28;20481;-63
2020/12/09 03:22:37;;;;;;;33.35;22.85;;;3.30;99.90;;;;;;4993265;28;20472;-63
2020/12/09 03:25:03;;;;;;;31.35;22.27;;;3.40;99.90;;;;;;4993325;28;20434;-63
2020/12/09 03:27:29;;;;;;;32.58;22.95;;;3.40;99.90;;;;;;4993057;28;20414;-64
2020/12/09 03:29:56;;;;;;;32.00;22.58;;;3.40;99.90;;;;;;4993398;28;20414;-63
2020/12/09 03:32:22;;;;;;;32.90;23.52;;;3.40;99.90;;;;;;4993696;28;20965;-63
2020/12/09 03:34:49;;;;;;;34.88;23.15;;;3.40;99.90;;;;;;4993251;28;20472;-63
2020/12/09 03:37:15;;;;;;;31.88;23.95;;;3.40;99.90;;;;;;4992742;28;20426;-63
2020/12/09 03:39:41;;;;;;;34.83;24.23;;;3.40;99.90;;;;;;4993022;28;20418;-63
2020/12/09 03:42:07;;;;;;;33.75;23.45;;;3.40;99.90;;;;;;4992669;28;20418;-63
2020/12/09 03:44:33;;;;;;;30.85;23.10;;;3.40;99.90;;;;;;4992903;28;20434;-63
2020/12/09 03:47:04;;;;;;;32.33;23.73;;;3.40;99.90;;;;;;4992957;28;20422;-63
2020/12/09 03:49:31;;;;;;;34.05;23.73;;;3.40;99.90;;;;;;4992802;28;20476;-63
2020/12/09 03:51:57;;;;;;;32.45;24.08;;;3.50;99.90;;;;;;4992797;28;20418;-64
2020/12/09 03:54:24;;;;;;;35.05;24.83;;;3.40;99.90;;;;;;4992533;28;20457;-63
2020/12/09 03:56:50;;;;;;;34.10;22.98;;;3.40;99.90;;;;;;4992445;28;20414;-63
2020/12/09 03:59:17;;;;;;;32.53;23.25;;;3.40;99.90;;;;;;4992630;28;20469;-64
2020/12/09 04:01:43;;;;;;;32.92;23.77;;;3.40;99.90;;;;;;4992592;28;20415;-63
2020/12/09 04:04:10;;;;;;;34.25;25.10;;;3.50;99.90;;;;;;4992224;28;20430;-63
2020/12/09 04:06:36;;;;;;;35.05;23.92;;;3.40;99.90;;;;;;4992470;28;20419;-61
2020/12/09 04:09:03;;;;;;;39.53;26.55;;;3.30;99.90;;;;;;4992369;28;20546;-63
2020/12/09 04:11:29;;;;;;;39.20;26.07;;;3.20;99.90;;;;;;4992395;28;20410;-62
2020/12/09 04:13:56;;;;;;;38.50;25.83;;;3.10;99.90;;;;;;4992370;28;20469;-64
2020/12/09 04:16:22;;;;;;;37.65;25.92;;;3.10;99.90;;;;;;4992779;28;20437;-63
2020/12/09 04:18:48;;;;;;;35.67;24.33;;;3.20;99.90;;;;;;4992585;28;20764;-64
2020/12/09 04:21:15;;;;;;;33.30;23.90;;;3.30;99.90;;;;;;4992491;28;20422;-63
2020/12/09 04:23:41;;;;;;;34.80;23.63;;;3.30;99.90;;;;;;4992114;28;20447;-63
2020/12/09 04:26:07;;;;;;;38.22;25.15;;;3.30;99.90;;;;;;4992408;28;20445;-63
2020/12/09 04:28:33;;;;;;;39.45;25.77;;;3.30;99.90;;;;;;4992286;28;20418;-63
2020/12/09 04:30:59;;;;;;;32.72;23.58;;;3.20;99.90;;;;;;4992048;28;20414;-64
2020/12/09 04:33:27;;;;;;;38.60;26.77;;;3.20;99.90;;;;;;4992128;28;20410;-63
2020/12/09 04:35:53;;;;;;;38.00;24.80;;;3.10;99.90;;;;;;4991850;28;20485;-64
2020/12/09 04:38:20;;;;;;;37.60;24.45;;;3.10;1.00;;;;;;4991786;28;20418;-64
2020/12/09 04:40:46;;;;;;;37.33;25.45;;;3.20;1.00;;;;;;4991791;28;20446;-63
2020/12/09 04:43:12;;;;;;;36.90;25.40;;;3.20;1.00;;;;;;4991956;28;20461;-63
2020/12/09 04:45:39;;;;;;;35.10;23.60;;;3.20;99.90;;;;;;4991917;28;20438;-63
2020/12/09 04:48:07;;;;;;;33.90;25.52;;;3.10;99.90;;;;;;4991504;28;20820;-63
2020/12/09 04:50:41;;;;;;;40.55;25.70;;;3.10;99.90;;;;;;4991621;28;20422;-63
2020/12/09 04:53:11;;;;;;;41.20;26.50;;;3.20;1.00;;;;;;4991645;28;20477;-63
2020/12/09 04:55:50;;;;;;;39.92;27.52;;;3.10;1.00;;;;;;4991780;28;20414;-63
2020/12/09 04:58:18;;;;;;;39.90;26.98;;;3.10;1.00;;;;;;4991505;28;20422;-63
2020/12/09 05:00:45;;;;;;;38.53;25.77;;;3.00;1.00;;;;;;4991695;28;20885;-63
2020/12/09 05:03:17;;;;;;;38.85;25.48;;;3.10;1.00;;;;;;4991495;28;20418;-63
2020/12/09 05:05:44;;;;;;;35.58;25.70;;;3.10;1.00;;;;;;4991549;28;20418;-63
2020/12/09 05:08:19;;;;;;;36.53;24.45;;;3.20;1.00;;;;;;4991906;28;20417;-64
2020/12/09 05:10:48;;;;;;;33.60;24.75;;;3.30;1.00;;;;;;4991486;28;20526;-63
2020/12/09 05:13:23;;;;;;;33.70;24.90;;;3.30;1.00;;;;;;4991525;28;20411;-64
2020/12/09 05:15:54;;;;;;;37.67;25.55;;;3.30;1.00;;;;;;4993460;28;20839;-63
2020/12/09 05:18:36;;;;;;;40.65;27.45;;;3.40;1.00;;;;;;4995769;28;20410;-63
2020/12/09 05:21:14;;;;;;;40.25;26.67;;;3.30;1.00;;;;;;4986340;28;20427;-63
2020/12/09 05:23:45;;;;;;;40.10;27.70;;;3.20;1.00;;;;;;4975415;28;20434;-63
2020/12/09 05:26:18;;;;;;;40.60;26.75;;;3.20;1.00;;;;;;4976060;28;20442;-63
2020/12/09 05:28:44;;;;;;;45.50;29.00;;;3.20;1.00;;;;;;4975674;28;20498;-63
2020/12/09 05:31:21;;;;;;;44.20;29.03;;;3.10;1.00;;;;;;4987195;28;20469;-63
2020/12/09 05:33:48;;;;;;;48.05;29.70;;;3.20;1.00;;;;;;5014340;28;20955;-63
2020/12/09 05:36:14;;;;;;;43.30;29.65;;;3.20;1.00;;;;;;5014819;28;20420;-63
2020/12/09 05:38:41;;;;;;;44.43;29.53;;;3.20;1.00;;;;;;5014352;28;20416;-62
2020/12/09 05:41:12;;;;;;;46.50;29.52;;;3.30;19.10;;;;;;5014959;28;20420;-63
2020/12/09 05:43:43;;;;;;;44.53;28.13;;;3.30;15.30;;;;;;5014869;28;20420;-63
2020/12/09 05:46:09;;;;;;;42.63;29.02;;;3.30;10.90;;;;;;5015172;28;20416;-64
2020/12/09 05:48:36;;;;;;;38.47;26.90;;;3.40;11.70;;;;;;5014850;28;20409;-62
2020/12/09 05:51:03;;;;;;;42.80;27.42;;;3.50;9.70;;;;;;5014355;28;20495;-62
2020/12/09 05:53:32;;;;;;;41.28;27.98;;;3.50;1.00;;;;;;5013968;28;20467;-62
2020/12/09 05:56:11;;;;;;;38.17;25.90;;;3.60;1.00;;;;;;5014572;28;20417;-62
2020/12/09 05:58:40;;;;;;;40.83;27.00;;;3.60;1.00;;;;;;5014172;28;20440;-62
2020/12/09 06:01:15;;;;;;;39.17;27.60;;;3.60;1.00;;;;;;5014438;28;20463;-60
2020/12/09 06:03:43;;;;;;;38.17;28.05;;;3.70;1.00;;;;;;5013946;28;20413;-62
2020/12/09 06:06:12;;;;;;;40.13;28.70;;;3.70;1.00;;;;;;5014290;28;20503;-61
2020/12/09 06:08:40;;;;;;;45.38;29.55;;;3.60;1.00;;;;;;5013944;28;20503;-62
2020/12/09 06:11:07;;;;;;;38.03;28.00;;;3.60;1.00;;;;;;5013863;28;20882;-63
2020/12/09 06:13:33;;;;;;;39.67;27.95;;;3.70;1.00;;;;;;5014018;28;20850;-62
2020/12/09 06:16:00;;;;;;;42.38;27.27;;;3.60;1.00;;;;;;5013729;28;20416;-62
2020/12/09 06:18:30;;;;;;;43.58;29.23;;;3.60;1.00;;;;;;5013698;28;20412;-63
2020/12/09 06:20:56;;;;;;;40.30;26.55;;;3.60;1.00;;;;;;5013780;28;20416;-61
2020/12/09 06:23:23;;;;;;;42.85;28.08;;;3.60;1.00;;;;;;5014017;28;20455;-63
2020/12/09 06:25:49;;;;;;;39.38;27.63;;;3.70;1.00;;;;;;4978830;28;20455;-61
2020/12/09 06:28:17;;;;;;;41.63;27.42;;;3.70;1.00;;;;;;4973174;28;20416;-61
2020/12/09 06:30:44;;;;;;;40.57;27.27;;;3.70;1.00;;;;;;4974318;28;20416;-61
2020/12/09 06:33:10;;;;;;;41.60;28.92;;;3.80;1.00;;;;;;4974307;28;20424;-60
2020/12/09 06:35:38;;;;;;;42.40;28.40;;;3.80;1.00;;;;;;4974400;28;21056;-61
2020/12/09 06:38:18;;;;;;;41.10;29.30;;;3.80;1.00;;;;;;4974012;28;20420;-62
2020/12/09 06:41:14;;;;;;;41.78;28.42;;;3.80;1.00;;;;;;4974034;28;20439;-61
2020/12/09 06:44:01;;;;;;;41.92;29.30;;;3.80;1.00;;;;;;4972778;28;20881;-60
2020/12/09 06:46:45;;;;;;;40.88;29.15;;;3.80;1.00;;;;;;4973547;28;20417;-59
2020/12/09 06:49:33;;;;;;;43.80;29.97;;;3.80;1.00;;;;;;4974108;28;20424;-59
2020/12/09 06:52:01;;;;;;;46.27;31.70;;;3.70;1.00;;;;;;4973979;28;20435;-59
2020/12/09 06:54:37;;;;;;;44.60;31.13;;;3.70;1.00;;;;;;4973838;28;20420;-60
2020/12/09 06:57:14;;;;;;;50.28;32.55;;;3.70;1.00;;;;;;4973926;28;20436;-61
2020/12/09 06:59:41;;;;;;;48.13;31.70;;;3.70;1.00;;;;;;4973805;28;20416;-59
2020/12/09 07:02:08;;;;;;;46.78;31.88;;;3.70;1.00;;;;;;4973582;28;20471;-57
2020/12/09 07:05:10;;;;;;;49.58;31.58;;;3.70;1.00;;;;;;4971824;28;20440;-61
2020/12/09 07:07:43;;;;;;;48.80;32.58;;;3.70;1.00;;;;;;4982745;28;20422;-61
2020/12/09 07:10:27;;;;;;;49.25;32.28;;;3.60;1.00;;;;;;4992847;28;20426;-60
2020/12/09 07:13:01;;;;;;;51.50;34.08;;;3.60;1.00;;;;;;4993366;28;20476;-61
2020/12/09 07:15:27;;;;;;;52.00;34.10;;;3.50;1.00;;;;;;4992913;28;20414;-59
2020/12/09 07:17:54;;;;;;;56.05;36.13;;;3.50;1.00;;;;;;4992916;28;20957;-61
2020/12/09 07:20:20;;;;;;;54.88;36.10;;;3.70;1.00;;;;;;4993355;28;20418;-59
2020/12/09 07:22:47;;;;;;;53.67;35.05;;;3.70;1.00;;;;;;4993287;28;20410;-61
2020/12/09 07:25:14;;;;;;;53.45;33.78;;;3.70;1.00;;;;;;4993148;28;20434;-61
2020/12/09 07:27:40;;;;;;;60.83;38.03;;;3.60;1.00;;;;;;5003463;28;20482;-61
2020/12/09 07:30:08;;;;;;;57.35;36.78;;;3.60;1.00;;;;;;5012681;28;20443;-63
2020/12/09 07:32:34;;;;;;;54.65;34.80;;;3.70;1.00;;;;;;5012871;28;20781;-61
2020/12/09 07:35:02;;;;;;;60.67;36.65;;;3.70;1.00;;;;;;5012666;28;20408;-63
2020/12/09 07:37:31;;;;;;;60.28;36.53;;;3.60;1.00;;;;;;5012912;28;20417;-61
2020/12/09 07:40:01;;;;;;;62.20;37.00;;;3.50;1.00;;;;;;5013082;28;20479;-62
2020/12/09 07:42:27;;;;;;;57.42;36.55;;;3.60;1.00;;;;;;5012542;28;20511;-62
2020/12/09 07:44:54;;;;;;;58.25;37.30;;;3.60;1.00;;;;;;5011291;28;20436;-57
2020/12/09 07:47:22;;;;;;;61.42;35.80;;;3.60;1.00;;;;;;5012475;28;20466;-59
2020/12/09 07:49:50;;;;;;;56.00;35.95;;;3.60;1.00;;;;;;5012278;28;20417;-61
2020/12/09 07:52:21;;;;;;;55.78;35.63;;;3.60;1.00;;;;;;5012103;28;20499;-60
2020/12/09 07:54:47;;;;;;;59.90;35.77;;;3.50;1.00;;;;;;5011460;28;21065;-61
2020/12/09 07:57:15;;;;;;;57.75;35.85;;;3.50;1.00;;;;;;5011572;28;20416;-61
2020/12/09 07:59:41;;;;;;;60.47;35.53;;;3.60;14.90;;;;;;5011942;28;20474;-61
2020/12/09 08:02:20;;;;;;;61.08;35.67;;;3.60;1.00;;;;;;5011735;28;20543;-62
2020/12/09 08:04:48;;;;;;;54.55;34.15;;;3.70;1.00;;;;;;5011284;28;20548;-62
2020/12/09 08:07:15;;;;;;;58.35;35.47;;;3.70;1.00;;;;;;5011459;28;20909;-61
2020/12/09 08:09:41;;;;;;;78.40;40.60;;;3.50;1.00;;;;;;5011686;28;20413;-62
2020/12/09 08:12:08;;;;;;;70.30;37.70;;;3.40;1.00;;;;;;5011743;28;20826;-61
2020/12/09 08:14:34;;;;;;;65.37;39.20;;;3.50;1.00;;;;;;5011383;28;20420;-62
2020/12/09 08:17:01;;;;;;;69.28;40.17;;;3.50;1.00;;;;;;5011308;28;20467;-61
2020/12/09 08:19:27;;;;;;;69.80;39.78;;;3.50;1.00;;;;;;5012109;28;20471;-61
2020/12/09 08:22:04;;;;;;;79.45;41.65;;;3.50;1.00;;;;;;5011225;28;20443;-61
2020/12/09 08:24:30;;;;;;;75.53;41.35;;;3.50;1.00;;;;;;5011174;28;20524;-61
2020/12/09 08:26:57;;;;;;;71.60;40.97;;;3.50;1.00;;;;;;5010900;28;20424;-61
2020/12/09 08:29:23;;;;;;;69.40;39.70;;;3.50;1.00;;;;;;5010799;28;20913;-61
2020/12/09 08:32:02;;;;;;;73.35;41.15;;;3.50;1.00;;;;;;5010741;28;20413;-59
2020/12/09 08:34:28;;;;;;;69.43;42.28;;;3.60;1.00;;;;;;5010996;28;20916;-60
2020/12/09 08:36:54;;;;;;;65.03;40.30;;;3.60;1.00;;;;;;5011218;28;20471;-60
2020/12/09 08:39:20;;;;;;;68.05;40.70;;;3.70;1.00;;;;;;5011218;28;20727;-61
2020/12/09 08:41:47;;;;;;;66.68;38.40;;;3.80;1.00;;;;;;5011037;28;20831;-61
2020/12/09 08:44:13;;;;;;;61.80;39.25;;;3.80;1.00;;;;;;5010155;28;20984;-61
2020/12/09 08:46:39;;;;;;;54.78;35.63;;;3.80;1.00;;;;;;5010939;28;20881;-61
2020/12/09 08:49:06;;;;;;;59.63;36.83;;;3.70;99.90;;;;;;5010855;28;20447;-57
2020/12/09 08:51:34;;;;;;;63.33;36.05;;;3.70;99.90;;;;;;5010476;28;20424;-62
2020/12/09 08:54:02;;;;;;;61.55;37.00;;;3.70;99.90;;;;;;5010647;28;20420;-61
2020/12/09 08:56:29;;;;;;;59.53;37.80;;;3.50;99.90;;;;;;5010314;28;20988;-62
2020/12/09 08:58:56;;;;;;;60.47;37.53;;;3.50;99.90;;;;;;5010675;28;20471;-61
2020/12/09 09:01:22;;;;;;;72.93;42.75;;;3.60;99.90;;;;;;5010897;28;20416;-62
2020/12/09 09:03:53;;;;;;;59.33;39.28;;;4.10;1.00;;;;;;5010333;28;20412;-61
2020/12/09 09:06:20;;;;;;;54.70;36.75;;;4.30;1.00;;;;;;5010707;28;20425;-61
2020/12/09 09:08:46;;;;;;;55.60;36.70;;;4.20;99.90;;;;;;5010540;28;20475;-62
2020/12/09 09:11:12;;;;;;;59.17;35.60;;;4.10;99.90;;;;;;5010499;28;20459;-61
2020/12/09 09:13:39;;;;;;;54.53;35.75;;;4.00;99.90;;;;;;5010316;28;20417;-62
2020/12/09 09:16:07;;;;;;;67.40;37.95;;;3.90;99.90;;;;;;5010993;28;20496;-62
2020/12/09 09:18:34;;;;;;;60.05;38.63;;;3.80;99.90;;;;;;5010695;28;20408;-62
2020/12/09 09:21:00;;;;;;;64.25;38.08;;;3.70;96.30;;;;;;5010579;28;20416;-63
2020/12/09 09:23:27;;;;;;;70.43;42.08;;;3.70;99.90;;;;;;5010548;28;20421;-61
2020/12/09 09:25:53;;;;;;;66.97;41.47;;;3.60;99.90;;;;;;5010291;28;20491;-62
2020/12/09 09:28:19;;;;;;;71.28;42.80;;;3.70;99.90;;;;;;5010398;28;20428;-61
2020/12/09 09:30:45;;;;;;;67.35;43.20;;;3.60;99.90;;;;;;5010644;28;20421;-61
2020/12/09 09:33:12;;;;;;;66.75;42.67;;;3.50;99.90;;;;;;5009983;28;20475;-61
2020/12/09 09:35:38;;;;;;;69.43;42.85;;;3.50;99.90;;;;;;5010438;28;20474;-59
2020/12/09 09:38:04;;;;;;;70.13;41.55;;;3.40;95.60;;;;;;5010151;28;20462;-61
2020/12/09 09:40:31;;;;;;;64.80;38.15;;;3.50;83.60;;;;;;5010173;28;20467;-61
2020/12/09 09:42:57;;;;;;;63.30;38.40;;;3.50;39.30;;;;;;5010356;28;20466;-59
2020/12/09 09:45:24;;;;;;;64.65;39.30;;;3.40;12.30;;;;;;5010075;28;20432;-61
2020/12/09 09:47:51;;;;;;;68.47;40.35;;;3.40;36.60;;;;;;5010439;28;20427;-61
2020/12/09 09:50:17;;;;;;;60.80;38.50;;;3.30;56.20;;;;;;5010062;28;20413;-61
2020/12/09 09:52:43;;;;;;;65.22;38.40;;;3.20;37.80;;;;;;5010326;28;20412;-62
2020/12/09 09:55:09;;;;;;;61.53;39.60;;;3.30;44.50;;;;;;5009836;28;20455;-61
2020/12/09 09:57:37;;;;;;;60.90;38.65;;;3.20;26.60;;;;;;5010426;28;20854;-61
2020/12/09 10:00:04;;;;;;;63.42;39.60;;;3.10;38.70;;;;;;5010278;28;20929;-61
2020/12/09 10:02:31;;;;;;;66.47;39.10;;;3.10;37.70;;;;;;5013442;28;20488;-59
2020/12/09 10:04:58;;;;;;;65.45;41.38;;;3.20;90.40;;;;;;5013466;28;20436;-61
2020/12/09 10:07:24;;;;;;;61.72;37.10;;;3.40;99.90;;;;;;5013613;28;20452;-60
2020/12/09 10:09:50;;;;;;;63.40;36.93;;;3.30;1.00;;;;;;5013687;28;20497;-58
2020/12/09 10:12:16;;;;;;;55.05;34.65;;;3.20;1.00;;;;;;5013737;28;20471;-61
2020/12/09 10:14:44;;;;;;;58.20;35.20;;;3.20;1.00;;;;;;5013284;28;20436;-62
2020/12/09 10:17:10;;;;;;;52.63;34.30;;;3.10;1.00;;;;;;5014026;28;20448;-61
2020/12/09 10:19:36;;;;;;;53.10;35.50;;;3.20;1.00;;;;;;5013807;28;20412;-62
2020/12/09 10:22:02;;;;;;;55.58;34.92;;;3.00;1.00;;;;;;5013495;28;20420;-62
2020/12/09 10:24:29;;;;;;;55.65;35.90;;;3.00;1.00;;;;;;5013007;28;20909;-63
2020/12/09 10:26:55;;;;;;;55.70;35.17;;;3.00;1.00;;;;;;5013401;28;20416;-63
2020/12/09 10:29:21;;;;;;;57.95;36.42;;;3.00;1.00;;;;;;5013663;28;20479;-64
2020/12/09 10:31:50;;;;;;;53.47;34.27;;;3.10;1.00;;;;;;5013214;28;20924;-63
2020/12/09 10:34:18;;;;;;;55.15;35.10;;;3.10;1.00;;;;;;4998345;28;20408;-63
2020/12/09 10:36:48;;;;;;;59.97;36.92;;;3.00;1.00;;;;;;4993107;28;20422;-63
2020/12/09 10:39:14;;;;;;;58.80;36.58;;;3.10;1.00;;;;;;4993879;28;20763;-62
2020/12/09 10:41:41;;;;;;;57.78;35.88;;;3.20;1.00;;;;;;4993681;28;20419;-62
2020/12/09 10:44:08;;;;;;;54.10;36.13;;;3.40;1.00;;;;;;4993021;28;20469;-63
2020/12/09 10:46:35;;;;;;;60.15;36.47;;;3.60;1.00;;;;;;4994155;28;20437;-64
2020/12/09 10:49:04;;;;;;;56.35;34.58;;;3.60;1.00;;;;;;4993308;28;20418;-63
2020/12/09 10:51:31;;;;;;;58.55;35.05;;;3.60;1.00;;;;;;4993386;28;20426;-61
2020/12/09 10:53:57;;;;;;;58.22;36.13;;;3.40;1.00;;;;;;4993245;28;20419;-63
2020/12/09 10:56:28;;;;;;;55.40;34.75;;;3.50;1.00;;;;;;4993276;28;20446;-63
2020/12/09 10:58:55;;;;;;;52.80;33.57;;;3.40;1.00;;;;;;4993561;28;20842;-63
2020/12/09 11:01:22;;;;;;;54.47;35.70;;;3.60;1.00;;;;;;4993163;28;20418;-63
2020/12/09 11:03:48;;;;;;;53.78;35.08;;;3.80;1.00;;;;;;4992762;28;20423;-63
2020/12/09 11:06:16;;;;;;;58.15;35.80;;;3.70;1.00;;;;;;4993215;28;20437;-62
2020/12/09 11:08:42;;;;;;;52.13;34.95;;;3.80;1.00;;;;;;4993139;28;20895;-63
2020/12/09 11:11:08;;;;;;;56.30;35.73;;;4.00;1.00;;;;;;4993282;28;20568;-63
2020/12/09 11:13:35;;;;;;;56.85;35.33;;;4.00;1.00;;;;;;4992259;28;20422;-62
2020/12/09 11:16:01;;;;;;;54.25;35.60;;;3.90;1.00;;;;;;4993424;28;20818;-65
2020/12/09 11:18:27;;;;;;;59.35;38.13;;;4.00;1.00;;;;;;4992539;28;20447;-62
2020/12/09 11:20:53;;;;;;;59.88;37.55;;;4.00;1.00;;;;;;4993339;28;20414;-62
2020/12/09 11:23:20;;;;;;;52.53;34.90;;;4.00;1.00;;;;;;4992996;28;20419;-63
2020/12/09 11:25:46;;;;;;;55.95;34.50;;;4.10;1.00;;;;;;4992761;28;20911;-62
2020/12/09 11:28:13;;;;;;;53.20;34.50;;;3.90;1.00;;;;;;4992643;28;20968;-62
2020/12/09 11:30:40;;;;;;;56.17;35.03;;;3.70;1.00;;;;;;4992409;28;20419;-61
2020/12/09 11:33:06;;;;;;;53.70;35.95;;;3.60;1.00;;;;;;4993106;28;20433;-61
2020/12/09 11:35:32;;;;;;;54.77;35.67;;;3.60;1.00;;;;;;4992636;28;20469;-62
2020/12/09 11:37:58;;;;;;;57.47;35.20;;;3.80;1.00;;;;;;4992658;28;20418;-61
2020/12/09 11:40:25;;;;;;;54.47;34.95;;;3.90;1.00;;;;;;4992701;28;20425;-61
2020/12/09 11:42:52;;;;;;;53.40;34.47;;;3.90;1.00;;;;;;4992209;28;20421;-61
2020/12/09 11:45:19;;;;;;;50.47;33.38;;;4.10;1.00;;;;;;4992050;28;20434;-62
2020/12/09 11:47:45;;;;;;;47.35;32.60;;;4.20;1.00;;;;;;4992050;28;20878;-62
2020/12/09 11:50:11;;;;;;;55.58;32.83;;;4.20;1.00;;;;;;4992579;28;20448;-61
2020/12/09 11:52:37;;;;;;;52.70;34.15;;;3.90;1.00;;;;;;4992375;28;20831;-64
2020/12/09 11:55:04;;;;;;;57.75;33.80;;;3.60;1.00;;;;;;4991700;28;20419;-64
2020/12/09 11:57:31;;;;;;;56.17;32.85;;;3.80;1.00;;;;;;4992290;28;20418;-64
2020/12/09 11:59:57;;;;;;;50.95;32.08;;;4.00;1.00;;;;;;4991896;28;20457;-62
2020/12/09 12:02:23;;;;;;;50.90;32.00;;;4.10;1.00;;;;;;4992512;28;20476;-63
2020/12/09 12:04:52;;;;;;;52.50;33.03;;;4.20;1.00;;;;;;4991704;28;20927;-63
2020/12/09 12:07:18;;;;;;;51.33;31.20;;;4.10;1.00;;;;;;4992424;28;20421;-64
2020/12/09 12:09:45;;;;;;;46.95;31.52;;;4.10;1.00;;;;;;4991996;28;20422;-64
2020/12/09 12:12:11;;;;;;;51.45;33.00;;;4.30;1.00;;;;;;4991827;28;20418;-63
2020/12/09 12:14:38;;;;;;;55.20;33.97;;;4.30;1.00;;;;;;4991839;28;20468;-64
2020/12/09 12:17:07;;;;;;;53.20;33.65;;;4.30;1.00;;;;;;4992015;28;20740;-64
2020/12/09 12:19:34;;;;;;;48.83;32.33;;;4.30;1.00;;;;;;4991863;28;20419;-63
2020/12/09 12:22:00;;;;;;;43.85;29.52;;;4.30;1.00;;;;;;4992205;28;20414;-64
2020/12/09 12:24:26;;;;;;;50.90;30.85;;;4.30;1.00;;;;;;4991364;28;20415;-64
2020/12/09 12:26:52;;;;;;;48.58;30.58;;;4.40;1.00;;;;;;4991677;28;20415;-64
2020/12/09 12:29:18;;;;;;;49.40;31.10;;;4.50;1.00;;;;;;4992253;28;20439;-64
2020/12/09 12:31:45;;;;;;;45.83;30.52;;;4.30;1.00;;;;;;4992020;28;20422;-63
2020/12/09 12:34:11;;;;;;;51.63;32.13;;;4.10;1.00;;;;;;4991430;28;20414;-66
2020/12/09 12:36:39;;;;;;;43.83;29.15;;;4.10;1.00;;;;;;4991527;28;20418;-64
2020/12/09 12:39:05;;;;;;;44.33;29.33;;;4.20;1.00;;;;;;4991987;28;20496;-64
2020/12/09 12:41:32;;;;;;;45.08;29.63;;;4.30;1.00;;;;;;4991575;28;20411;-64
2020/12/09 12:43:58;;;;;;;41.75;27.95;;;4.40;1.00;;;;;;4991571;28;20422;-63
2020/12/09 12:46:24;;;;;;;42.30;29.40;;;4.40;1.00;;;;;;4991210;28;20440;-63